Time;durP1;ratioP1;P1;durP2;ratioP2;P2;SDS_P1;SDS_P2;PMS_P1;PMS_P2;Temp;Humidity;BMP_temperature;BMP_pressure;BME280_temperature;BME280_humidity;BME280_pressure;Samples;Min_cycle;Max_cycle;Signal;HPM_P1;HPM_P2
2021/07/17 00:00:53;;;;;;;31.20;7.93;;;15.90;99.90;;;;;;6249687;23;20742;-81
2021/07/17 00:03:21;;;;;;;36.17;8.70;;;15.90;99.90;;;;;;6252387;23;20016;-81
2021/07/17 00:05:54;;;;;;;49.00;9.57;;;15.90;99.90;;;;;;6218147;23;20020;-81
2021/07/17 00:08:25;;;;;;;38.05;8.93;;;15.90;99.90;;;;;;6244583;23;20031;-81
2021/07/17 00:10:50;;;;;;;44.95;8.88;;;15.90;99.90;;;;;;6254313;23;20016;-81
2021/07/17 00:13:20;;;;;;;42.42;9.07;;;15.80;99.90;;;;;;6245925;22;20376;-81
2021/07/17 00:15:47;;;;;;;44.00;9.20;;;15.80;99.90;;;;;;6242912;23;20016;-81
2021/07/17 00:18:15;;;;;;;31.83;8.57;;;15.70;99.90;;;;;;6244150;22;20015;-81
2021/07/17 00:20:42;;;;;;;45.97;8.55;;;15.80;99.90;;;;;;6254383;23;20023;-81
2021/07/17 00:23:09;;;;;;;44.45;9.02;;;15.80;99.90;;;;;;6254307;23;20016;-81
2021/07/17 00:26:02;;;;;;;39.88;9.10;;;15.80;99.90;;;;;;6219067;23;20084;-81
2021/07/17 00:32:10;;;;;;;36.90;8.25;;;15.80;99.90;;;;;;6209893;23;20020;-81
2021/07/17 00:35:14;;;;;;;43.50;9.20;;;15.80;99.90;;;;;;6187798;23;20043;-82
2021/07/17 00:41:42;;;;;;;44.47;9.27;;;15.80;99.90;;;;;;6211451;23;20017;-82
2021/07/17 00:44:36;;;;;;;45.30;8.75;;;15.80;99.90;;;;;;6188753;23;20020;-82
2021/07/17 00:54:25;;;;;;;42.72;8.75;;;15.80;99.90;;;;;;6245362;23;19910;-82
2021/07/17 00:57:12;;;;;;;37.85;8.80;;;15.90;99.90;;;;;;6242352;23;20008;-82
2021/07/17 00:59:51;;;;;;;45.85;9.27;;;15.80;99.90;;;;;;6241553;23;20032;-82
2021/07/17 01:02:56;;;;;;;38.92;9.18;;;15.90;99.90;;;;;;6243853;22;20024;-82
2021/07/17 01:06:08;;;;;;;58.50;9.70;;;15.90;99.90;;;;;;6244306;23;20015;-82
2021/07/17 01:08:42;;;;;;;57.30;9.48;;;15.90;99.90;;;;;;6241934;23;20575;-82
2021/07/17 01:11:46;;;;;;;46.80;9.57;;;15.90;99.90;;;;;;6254575;22;20022;-82
2021/07/17 01:14:48;;;;;;;42.70;10.15;;;15.90;99.90;;;;;;6217578;23;20105;-81
2021/07/17 01:24:00;;;;;;;46.35;10.40;;;15.90;99.90;;;;;;6245964;23;20102;-82
2021/07/17 01:26:26;;;;;;;;;;;16.00;99.90;;;;;;6219779;23;20016;-82
2021/07/17 01:28:53;;;;;;;39.38;8.75;;;15.90;99.90;;;;;;6217197;23;19918;-81
2021/07/17 01:31:28;;;;;;;39.97;9.05;;;15.90;99.90;;;;;;6216509;23;20448;-81
2021/07/17 01:33:58;;;;;;;39.28;8.68;;;16.00;99.90;;;;;;6218773;23;20023;-82
2021/07/17 01:36:28;;;;;;;40.65;8.70;;;16.00;99.90;;;;;;6244273;23;20019;-83
2021/07/17 01:38:54;;;;;;;37.97;8.77;;;16.00;99.90;;;;;;6217883;23;20039;-82
2021/07/17 01:41:21;;;;;;;36.25;7.75;;;16.00;99.90;;;;;;6217838;23;20016;-82
2021/07/17 01:43:49;;;;;;;42.00;8.38;;;16.00;99.90;;;;;;6243455;23;20449;-82
2021/07/17 01:46:17;;;;;;;48.85;8.80;;;16.00;99.90;;;;;;6216637;23;20336;-82
2021/07/17 01:49:09;;;;;;;41.85;8.13;;;16.10;99.90;;;;;;6253784;23;20023;-81
2021/07/17 01:51:35;;;;;;;40.85;7.78;;;16.10;99.90;;;;;;6240303;22;20317;-82
2021/07/17 01:54:01;;;;;;;39.42;7.80;;;16.10;99.90;;;;;;6252605;23;20019;-82
2021/07/17 01:56:27;;;;;;;47.05;8.43;;;16.10;99.90;;;;;;6254628;22;20115;-82
2021/07/17 01:58:56;;;;;;;42.25;7.80;;;16.10;99.90;;;;;;6242730;23;20012;-82
2021/07/17 02:01:23;;;;;;;36.55;7.63;;;16.10;99.90;;;;;;6246569;22;20023;-82
2021/07/17 02:03:50;;;;;;;36.75;7.93;;;16.10;99.90;;;;;;6250719;23;20012;-82
2021/07/17 02:06:27;;;;;;;49.22;8.75;;;16.10;99.90;;;;;;6242893;23;20008;-82
2021/07/17 02:08:54;;;;;;;38.72;8.75;;;16.00;99.90;;;;;;6243115;23;20258;-82
2021/07/17 02:11:20;;;;;;;44.40;9.13;;;16.00;99.90;;;;;;6243404;23;20015;-82
2021/07/17 02:13:48;;;;;;;47.13;9.70;;;16.00;99.90;;;;;;6242251;23;20019;-82
2021/07/17 02:16:14;;;;;;;51.88;10.00;;;16.00;99.90;;;;;;6255207;23;20387;-82
2021/07/17 02:18:42;;;;;;;37.35;9.60;;;16.00;99.90;;;;;;6246185;23;20016;-82
2021/07/17 02:21:08;;;;;;;42.63;9.90;;;16.00;99.90;;;;;;6256959;23;20016;-82
2021/07/17 02:23:35;;;;;;;46.92;10.20;;;16.00;99.90;;;;;;6247036;23;20019;-82
2021/07/17 02:26:04;;;;;;;40.42;10.20;;;15.90;99.90;;;;;;6246899;23;20022;-82
2021/07/17 02:28:30;;;;;;;45.13;10.23;;;15.90;99.90;;;;;;6257495;22;20012;-81
2021/07/17 02:30:56;;;;;;;38.53;9.32;;;15.90;99.90;;;;;;6256486;23;20381;-82
2021/07/17 02:33:24;;;;;;;42.67;9.75;;;15.90;99.90;;;;;;6253176;23;20023;-82
2021/07/17 02:36:11;;;;;;;46.13;10.00;;;15.80;99.90;;;;;;6216997;23;20078;-81
2021/07/17 02:38:36;;;;;;;43.40;9.15;;;15.90;99.90;;;;;;6253185;22;20012;-82
2021/07/17 02:41:02;;;;;;;49.45;9.80;;;15.90;99.90;;;;;;6242308;23;20016;-82
2021/07/17 02:43:28;;;;;;;47.17;9.80;;;15.80;99.90;;;;;;6252533;22;20016;-82
2021/07/17 02:45:54;;;;;;;41.47;9.50;;;15.90;99.90;;;;;;6253265;23;20030;-82
2021/07/17 02:48:20;;;;;;;54.33;9.15;;;15.90;99.90;;;;;;6243872;23;20375;-82
2021/07/17 02:50:45;;;;;;;33.83;8.65;;;15.90;99.90;;;;;;6242274;23;20019;-82
2021/07/17 02:53:11;;;;;;;44.70;8.82;;;15.90;99.90;;;;;;6241370;23;20012;-82
2021/07/17 02:55:37;;;;;;;42.88;8.88;;;15.90;99.90;;;;;;6240750;23;20019;-82
2021/07/17 02:58:04;;;;;;;39.90;9.00;;;15.90;99.90;;;;;;6252235;23;20062;-82
2021/07/17 03:00:33;;;;;;;36.92;8.20;;;15.90;99.90;;;;;;6250414;23;20023;-82
2021/07/17 03:03:09;;;;;;;39.97;8.27;;;15.70;99.90;;;;;;6251817;23;20012;-82
2021/07/17 03:05:35;;;;;;;43.25;8.57;;;15.80;99.90;;;;;;6241064;23;20008;-82
2021/07/17 03:08:01;;;;;;;35.17;7.85;;;15.90;99.90;;;;;;6242107;23;20057;-82
2021/07/17 03:10:28;;;;;;;41.40;8.90;;;15.90;99.90;;;;;;6252399;23;20016;-82
2021/07/17 03:12:53;;;;;;;42.33;8.80;;;15.80;99.90;;;;;;6251899;23;20106;-82
2021/07/17 03:15:19;;;;;;;42.67;9.00;;;15.90;99.90;;;;;;6252857;23;20012;-82
2021/07/17 03:17:45;;;;;;;40.17;8.10;;;15.80;99.90;;;;;;6242509;23;20032;-82
2021/07/17 03:20:12;;;;;;;36.53;7.68;;;15.90;99.90;;;;;;6253729;23;20014;-82
2021/07/17 03:22:38;;;;;;;39.45;7.93;;;15.90;99.90;;;;;;6246355;23;20441;-82
2021/07/17 03:25:05;;;;;;;35.63;7.50;;;15.90;99.90;;;;;;6241966;23;20015;-82
2021/07/17 03:27:31;;;;;;;48.05;8.20;;;15.90;99.90;;;;;;6241156;23;20012;-82
2021/07/17 03:30:00;;;;;;;42.97;9.18;;;15.90;99.90;;;;;;6251244;23;20012;-82
2021/07/17 03:32:27;;;;;;;41.78;8.90;;;15.90;99.90;;;;;;6242127;23;20023;-82
2021/07/17 03:34:54;;;;;;;45.92;8.45;;;15.90;99.90;;;;;;6251113;23;20008;-82
2021/07/17 03:37:21;;;;;;;37.28;8.98;;;16.00;99.90;;;;;;6215806;23;20070;-82
2021/07/17 03:39:54;;;;;;;39.95;9.13;;;16.00;99.90;;;;;;6242554;23;20020;-82
2021/07/17 03:42:21;;;;;;;33.97;8.48;;;16.00;99.90;;;;;;6218237;23;20012;-82
2021/07/17 03:44:47;;;;;;;40.35;8.25;;;16.00;99.90;;;;;;6241885;23;20074;-82
2021/07/17 03:47:24;;;;;;;50.90;8.70;;;16.10;99.90;;;;;;6242922;23;20012;-82
2021/07/17 03:49:56;;;;;;;43.97;8.38;;;16.10;99.90;;;;;;6218556;23;20035;-81
2021/07/17 03:52:27;;;;;;;45.17;9.00;;;16.10;99.90;;;;;;6240831;23;20037;-82
2021/07/17 03:55:05;;;;;;;46.60;8.52;;;16.10;99.90;;;;;;6252560;23;20039;-82
2021/07/17 03:57:34;;;;;;;43.10;9.23;;;16.10;99.90;;;;;;6241767;23;20099;-82
2021/07/17 04:00:02;;;;;;;34.95;8.05;;;16.10;99.90;;;;;;6253087;23;20012;-82
2021/07/17 04:02:43;;;;;;;45.83;8.85;;;16.10;99.90;;;;;;6215208;23;20016;-83
2021/07/17 04:06:00;;;;;;;;;;;;;;;;;;;;;
2021/07/17 04:13:07;;;;;;;45.22;7.93;;;16.30;99.90;;;;;;6150985;23;20088;-82
2021/07/17 04:15:39;;;;;;;42.20;7.85;;;16.30;99.90;;;;;;6126618;23;20022;-83
2021/07/17 04:18:18;;;;;;;35.03;6.90;;;16.40;99.90;;;;;;6150294;23;20469;-82
2021/07/17 04:20:46;;;;;;;41.70;7.35;;;16.30;99.90;;;;;;6101915;23;20020;-82
2021/07/17 04:27:31;;;;;;;45.08;7.82;;;16.40;99.90;;;;;;6064175;23;20066;-82
2021/07/17 04:30:52;;;;;;;37.53;7.50;;;16.50;99.90;;;;;;6061202;23;20022;-82
2021/07/17 04:33:37;;;;;;;33.92;7.68;;;16.50;99.90;;;;;;5950124;24;20025;-82
2021/07/17 04:36:10;;;;;;;31.02;7.22;;;16.60;99.90;;;;;;5961110;24;20021;-82
2021/07/17 04:38:48;;;;;;;32.40;7.45;;;16.70;99.90;;;;;;5952637;24;20017;-82
2021/07/17 04:41:19;;;;;;;34.55;7.55;;;16.70;99.90;;;;;;5931023;24;20020;-82
2021/07/17 04:43:47;;;;;;;34.55;7.38;;;17.00;99.90;;;;;;5931348;24;20036;-82
2021/07/17 04:46:13;;;;;;;37.10;6.97;;;17.30;99.90;;;;;;5983822;23;20041;-82
2021/07/17 04:48:46;;;;;;;35.15;6.53;;;17.20;99.90;;;;;;6013123;23;20388;-82
2021/07/17 04:51:45;;;;;;;33.90;7.13;;;17.30;99.90;;;;;;6038836;23;20043;-82
2021/07/17 04:54:17;;;;;;;32.75;6.90;;;17.20;99.90;;;;;;6045772;23;20086;-82
2021/07/17 04:56:48;;;;;;;22.60;6.30;;;17.30;99.90;;;;;;6036142;23;20030;-82
2021/07/17 04:59:39;;;;;;;24.83;6.15;;;17.30;99.90;;;;;;6036340;23;20012;-82
2021/07/17 05:02:18;;;;;;;40.55;7.82;;;17.30;99.90;;;;;;5981290;23;20112;-79
2021/07/17 05:04:57;;;;;;;28.45;6.22;;;17.30;99.90;;;;;;6080662;23;20043;-82
2021/07/17 05:07:39;;;;;;;37.97;7.32;;;17.30;99.90;;;;;;6041758;23;20019;-82
2021/07/17 05:10:28;;;;;;;36.70;6.80;;;17.30;99.90;;;;;;6108859;23;20076;-83
2021/07/17 05:13:12;;;;;;;31.00;6.40;;;17.50;99.90;;;;;;6130228;23;20080;-82
2021/07/17 05:15:38;;;;;;;30.15;6.43;;;17.50;99.90;;;;;;6139040;23;20013;-82
2021/07/17 05:18:05;;;;;;;34.60;6.30;;;17.50;99.90;;;;;;6157442;23;20041;-80
2021/07/17 05:20:31;;;;;;;25.25;6.15;;;17.50;99.90;;;;;;6138615;23;20143;-79
2021/07/17 05:22:57;;;;;;;27.77;6.07;;;17.60;99.90;;;;;;6152521;23;20032;-82
2021/07/17 05:25:22;;;;;;;28.92;6.10;;;17.60;99.90;;;;;;6163685;23;20034;-81
2021/07/17 05:27:48;;;;;;;25.75;5.38;;;17.60;99.90;;;;;;6214252;23;20043;-82
2021/07/17 05:30:14;;;;;;;23.25;5.00;;;17.70;99.90;;;;;;6190512;23;20019;-81
2021/07/17 05:32:40;;;;;;;34.33;5.32;;;17.70;99.90;;;;;;6228679;23;20016;-82
2021/07/17 05:35:06;;;;;;;28.40;5.78;;;17.80;99.90;;;;;;6203200;23;20019;-82
2021/07/17 05:37:32;;;;;;;30.27;5.88;;;17.80;99.90;;;;;;6221175;23;20012;-83
2021/07/17 05:39:58;;;;;;;23.60;5.00;;;17.80;99.90;;;;;;6199222;23;20017;-80
2021/07/17 05:42:24;;;;;;;27.48;5.55;;;17.80;99.90;;;;;;6198956;23;20023;-82
2021/07/17 05:44:50;;;;;;;31.42;5.60;;;17.90;99.90;;;;;;6188215;23;20018;-80
2021/07/17 05:47:16;;;;;;;25.55;5.28;;;17.90;99.90;;;;;;6187203;23;20513;-80
2021/07/17 05:49:42;;;;;;;30.05;5.60;;;17.90;99.90;;;;;;6215337;23;20090;-79
2021/07/17 05:52:08;;;;;;;26.55;5.63;;;18.00;99.90;;;;;;6187248;23;20020;-79
2021/07/17 05:54:34;;;;;;;21.75;4.72;;;18.00;99.90;;;;;;6198050;23;20515;-81
2021/07/17 05:57:01;;;;;;;22.02;5.10;;;18.00;99.90;;;;;;6187878;23;20020;-79
2021/07/17 05:59:26;;;;;;;26.02;5.28;;;18.10;99.90;;;;;;6214715;23;20013;-80
2021/07/17 06:01:52;;;;;;;30.25;4.82;;;18.10;99.90;;;;;;6229829;23;20016;-84
2021/07/17 06:04:18;;;;;;;24.73;4.53;;;18.10;99.90;;;;;;6248554;23;20043;-82
2021/07/17 06:06:44;;;;;;;19.52;4.28;;;18.20;99.90;;;;;;6245558;23;20390;-82
2021/07/17 06:09:10;;;;;;;22.83;3.80;;;18.20;99.90;;;;;;6256100;23;20016;-81
2021/07/17 06:11:36;;;;;;;21.63;4.88;;;18.30;99.90;;;;;;6256014;23;20008;-82
2021/07/17 06:14:01;;;;;;;22.92;5.32;;;18.30;99.90;;;;;;6254743;23;20425;-82
2021/07/17 06:16:27;;;;;;;23.25;5.32;;;18.40;99.90;;;;;;6245077;23;20019;-81
2021/07/17 06:18:53;;;;;;;19.75;4.65;;;18.40;99.90;;;;;;6244058;23;20019;-82
2021/07/17 06:21:19;;;;;;;28.25;5.03;;;18.40;99.90;;;;;;6255026;23;20031;-83
2021/07/17 06:23:44;;;;;;;15.85;4.40;;;18.40;99.90;;;;;;6245503;23;20421;-80
2021/07/17 06:26:10;;;;;;;20.40;4.03;;;18.50;99.90;;;;;;6255841;23;20069;-81
2021/07/17 06:28:37;;;;;;;25.02;5.30;;;18.50;99.90;;;;;;6254807;23;20016;-81
2021/07/17 06:31:03;;;;;;;22.75;4.80;;;18.50;99.90;;;;;;6242638;23;20417;-80
2021/07/17 06:33:29;;;;;;;22.80;4.85;;;18.50;99.90;;;;;;6241827;23;20035;-80
2021/07/17 06:35:54;;;;;;;23.65;4.03;;;18.60;99.90;;;;;;6252536;23;20654;-81
2021/07/17 06:38:24;;;;;;;23.25;5.00;;;18.50;99.90;;;;;;6241783;23;20411;-83
2021/07/17 06:41:01;;;;;;;29.88;5.35;;;18.60;99.90;;;;;;6244101;23;20475;-84
2021/07/17 06:43:30;;;;;;;17.13;4.63;;;18.70;99.90;;;;;;6242989;23;20040;-83
2021/07/17 06:45:56;;;;;;;21.83;4.53;;;18.80;99.90;;;;;;6243074;23;20019;-80
2021/07/17 06:48:23;;;;;;;19.42;4.40;;;18.80;99.90;;;;;;6242407;23;20008;-82
2021/07/17 06:50:48;;;;;;;24.30;4.90;;;18.90;99.90;;;;;;6242719;23;20028;-80
2021/07/17 06:53:32;;;;;;;20.42;4.80;;;19.00;99.90;;;;;;6248467;23;20431;-82
2021/07/17 06:56:00;;;;;;;20.27;4.55;;;19.00;99.90;;;;;;6217566;23;20103;-82
2021/07/17 06:58:25;;;;;;;21.50;4.50;;;19.00;99.90;;;;;;6218084;23;20057;-83
2021/07/17 07:01:09;;;;;;;22.20;4.47;;;19.00;99.90;;;;;;6248377;22;20051;-83
2021/07/17 07:04:19;;;;;;;16.98;3.45;;;19.10;99.90;;;;;;6241085;23;20012;-82
2021/07/17 07:06:48;;;;;;;19.58;4.07;;;19.10;99.90;;;;;;6241034;23;20020;-82
2021/07/17 07:09:17;;;;;;;20.27;4.10;;;19.20;99.90;;;;;;6216755;23;20020;-82
2021/07/17 07:11:46;;;;;;;13.55;3.45;;;19.20;99.90;;;;;;6252089;23;20317;-82
2021/07/17 07:14:14;;;;;;;15.95;3.25;;;19.20;99.90;;;;;;6242089;23;20019;-82
2021/07/17 07:16:40;;;;;;;17.13;3.38;;;19.20;99.90;;;;;;6225576;23;20023;-83
2021/07/17 07:19:06;;;;;;;17.40;3.60;;;19.30;99.90;;;;;;6259755;23;20456;-84
2021/07/17 07:21:32;;;;;;;27.45;4.43;;;19.40;99.90;;;;;;6266995;23;20015;-84
2021/07/17 07:23:58;;;;;;;21.73;4.20;;;19.50;99.90;;;;;;6264791;23;20723;-85
2021/07/17 07:26:23;;;;;;;17.65;3.55;;;19.50;99.90;;;;;;6252535;23;20012;-87
2021/07/17 07:28:56;;;;;;;19.75;3.80;;;19.60;99.90;;;;;;6223059;23;20012;-85
2021/07/17 07:31:22;;;;;;;10.88;2.90;;;19.60;99.90;;;;;;6255243;23;20024;-84
2021/07/17 07:33:48;;;;;;;13.45;3.25;;;19.60;99.90;;;;;;6243784;23;20520;-83
2021/07/17 07:44:28;;;;;;;22.48;3.70;;;19.70;99.90;;;;;;6181415;23;20354;-83
2021/07/17 07:47:26;;;;;;;17.40;3.35;;;19.70;99.90;;;;;;6120266;23;20018;-82
2021/07/17 07:51:02;;;;;;;;;;;;;;;;;;;;;
2021/07/17 07:54:33;;;;;;;16.88;3.53;;;19.80;99.90;;;;;;6120366;23;20040;-84
2021/07/17 07:57:39;;;;;;;15.07;3.35;;;19.80;99.90;;;;;;6100859;23;20552;-83
2021/07/17 08:00:46;;;;;;;13.82;3.35;;;19.90;99.90;;;;;;6045149;23;20097;-83
2021/07/17 08:04:00;;;;;;;15.85;3.33;;;20.10;99.90;;;;;;6068597;23;20063;-83
2021/07/17 08:07:26;;;;;;;16.50;3.20;;;20.10;99.90;;;;;;6015777;23;20012;-84
2021/07/17 08:14:04;;;;;;;;;;;;;;;;;;;;;
2021/07/17 08:20:39;;;;;;;19.25;3.67;;;20.30;99.90;;;;;;6071158;23;20019;-83
2021/07/17 08:24:08;;;;;;;;;;;;;;;;;;;;;
2021/07/17 08:27:06;;;;;;;11.80;2.72;;;20.30;99.90;;;;;;6037461;23;20019;-83
2021/07/17 08:33:24;;;;;;;11.52;2.15;;;20.50;99.90;;;;;;6036959;23;20166;-83
2021/07/17 08:36:03;;;;;;;11.73;2.85;;;20.50;99.90;;;;;;5989210;23;20004;-83
2021/07/17 08:38:44;;;;;;;17.27;3.22;;;20.50;99.90;;;;;;6015798;23;20019;-83
2021/07/17 08:41:37;;;;;;;12.00;2.70;;;20.60;99.90;;;;;;6016309;23;20162;-83
2021/07/17 08:44:44;;;;;;;11.98;2.80;;;20.70;99.90;;;;;;6044323;23;20458;-83
2021/07/17 08:48:11;;;;;;;8.43;2.03;;;21.00;99.90;;;;;;6017592;23;20022;-84
2021/07/17 08:51:39;;;;;;;10.37;2.70;;;20.90;99.90;;;;;;5980875;24;20020;-83
2021/07/17 08:58:06;;;;;;;13.63;2.65;;;21.00;99.90;;;;;;5950482;24;20008;-83
2021/07/17 09:01:47;;;;;;;13.00;2.53;;;21.00;99.90;;;;;;5865972;24;20022;-83
2021/07/17 09:08:27;;;;;;;15.02;2.75;;;21.20;99.90;;;;;;6250335;22;20024;-84
2021/07/17 09:22:00;;;;;;;12.30;3.00;;;21.20;99.90;;;;;;6012664;23;20025;-83
2021/07/17 09:25:43;;;;;;;9.88;2.47;;;21.50;99.90;;;;;;6037099;23;20581;-84
2021/07/17 09:29:08;;;;;;;13.05;3.20;;;21.50;99.90;;;;;;6017119;23;20453;-84
2021/07/17 09:32:27;;;;;;;9.50;2.58;;;21.60;99.90;;;;;;5988228;23;20027;-84
2021/07/17 09:35:56;;;;;;;8.15;2.20;;;21.60;99.90;;;;;;5989512;23;20016;-83
2021/07/17 09:38:51;;;;;;;9.52;2.35;;;21.50;99.90;;;;;;5897343;24;20427;-83
2021/07/17 09:41:33;;;;;;;10.32;1.88;;;21.70;99.90;;;;;;5897321;24;20044;-84
2021/07/17 09:44:28;;;;;;;11.18;2.45;;;21.70;99.90;;;;;;5897774;24;20017;-83
2021/07/17 09:47:34;;;;;;;8.27;2.00;;;21.90;99.90;;;;;;5896526;24;20029;-84
2021/07/17 09:50:42;;;;;;;9.27;2.35;;;21.90;99.90;;;;;;5898025;24;20022;-84
2021/07/17 09:54:06;;;;;;;10.95;2.35;;;21.90;99.90;;;;;;5904219;24;20026;-83
2021/07/17 09:57:04;;;;;;;5.90;1.80;;;21.90;99.90;;;;;;5887011;24;20070;-83
2021/07/17 10:00:01;;;;;;;11.18;2.33;;;21.70;99.90;;;;;;5954954;23;20012;-83
2021/07/17 10:03:20;;;;;;;9.32;1.90;;;22.00;99.90;;;;;;6002385;23;20029;-83
2021/07/17 10:05:53;;;;;;;8.30;2.05;;;22.20;99.90;;;;;;6046548;23;20015;-83
2021/07/17 10:08:38;;;;;;;8.02;1.92;;;22.30;99.90;;;;;;6023044;23;20035;-84
2021/07/17 10:11:19;;;;;;;;;;;22.50;99.90;;;;;;5986503;23;20449;-84
2021/07/17 10:14:44;;;;;;;5.13;1.45;;;22.40;99.90;;;;;;6020863;23;19913;-83
2021/07/17 10:21:04;;;;;;;9.80;1.83;;;22.30;99.90;;;;;;6036653;23;20035;-82
2021/07/17 10:28:19;;;;;;;8.98;1.85;;;22.40;99.90;;;;;;6036453;23;20568;-83
2021/07/17 10:31:12;;;;;;;;;;;22.30;99.90;;;;;;5922798;23;20350;-83
2021/07/17 10:34:36;;;;;;;14.30;2.00;;;22.70;99.90;;;;;;5944656;24;19978;-83
2021/07/17 10:38:14;;;;;;;5.25;1.67;;;22.70;99.90;;;;;;5933037;24;20028;-83
2021/07/17 10:40:57;;;;;;;3.67;1.08;;;22.70;99.90;;;;;;5928803;24;20327;-83
2021/07/17 10:43:54;;;;;;;4.47;1.33;;;22.70;99.90;;;;;;5947132;23;20125;-82
2021/07/17 10:47:03;;;;;;;5.07;1.50;;;22.70;99.90;;;;;;5960833;23;20020;-86
2021/07/17 10:49:35;;;;;;;7.45;1.58;;;22.90;99.90;;;;;;6013426;23;20016;-85
2021/07/17 10:52:10;;;;;;;5.63;1.42;;;22.90;99.90;;;;;;5989978;23;20309;-83
2021/07/17 11:10:00;;;;;;;9.82;1.80;;;23.40;99.90;;;;;;5871340;24;20010;-86
2021/07/17 11:13:11;;;;;;;7.55;1.65;;;23.40;99.90;;;;;;5868267;24;20023;-83
2021/07/17 11:19:29;;;;;;;5.72;1.35;;;23.60;99.90;;;;;;5843946;24;20079;-88
2021/07/17 11:38:32;;;;;;;6.70;1.77;;;23.60;99.90;;;;;;6137518;22;1310312;-84
2021/07/17 11:41:30;;;;;;;6.38;1.63;;;23.60;99.90;;;;;;6192945;23;20025;-85
2021/07/17 11:44:55;;;;;;;4.75;1.50;;;23.90;99.90;;;;;;6141495;23;20024;-85
2021/07/17 11:47:40;;;;;;;6.20;1.30;;;23.90;99.90;;;;;;6169563;23;20019;-87
2021/07/17 11:50:13;;;;;;;5.50;1.40;;;24.20;99.90;;;;;;6167326;23;20060;-88
2021/07/17 11:53:30;;;;;;;6.03;1.40;;;24.50;99.90;;;;;;6168643;23;20016;-87
2021/07/17 11:56:37;;;;;;;3.40;1.25;;;24.10;99.90;;;;;;6130018;23;20077;-87
2021/07/17 11:59:25;;;;;;;7.20;1.15;;;24.00;99.90;;;;;;6102074;23;20018;-86
2021/07/17 12:02:16;;;;;;;9.50;1.45;;;24.10;99.90;;;;;;6080024;23;20085;-87
2021/07/17 12:04:52;;;;;;;7.73;1.30;;;24.10;99.90;;;;;;6091868;23;20041;-85
2021/07/17 12:07:21;;;;;;;8.07;1.40;;;24.40;99.90;;;;;;6106343;23;20410;-85
2021/07/17 12:09:58;;;;;;;5.28;1.20;;;24.30;99.90;;;;;;6102590;23;20340;-88
2021/07/17 12:12:39;;;;;;;6.60;1.40;;;24.10;99.90;;;;;;6076914;23;20327;-85
2021/07/17 12:15:08;;;;;;;4.32;1.42;;;24.10;99.90;;;;;;6100896;23;20054;-84
2021/07/17 12:17:59;;;;;;;4.65;1.10;;;24.00;99.90;;;;;;6111031;23;20014;-84
2021/07/17 12:20:35;;;;;;;3.40;1.20;;;24.50;99.90;;;;;;5963003;24;20031;-85
2021/07/17 12:23:15;;;;;;;4.47;1.38;;;24.60;99.90;;;;;;5963590;24;20020;-85
2021/07/17 12:26:01;;;;;;;3.17;1.15;;;24.80;99.90;;;;;;5963916;24;20043;-85
2021/07/17 12:29:11;;;;;;;3.88;1.20;;;24.80;99.90;;;;;;5962845;24;20020;-85
2021/07/17 12:32:03;;;;;;;2.67;1.13;;;25.20;99.90;;;;;;6017800;23;20031;-85
2021/07/17 12:34:32;;;;;;;2.22;1.08;;;25.00;99.90;;;;;;6053515;23;20083;-86
2021/07/17 12:36:57;;;;;;;4.45;1.23;;;25.20;99.90;;;;;;6037282;23;20023;-87
2021/07/17 12:39:23;;;;;;;5.82;1.30;;;25.10;99.90;;;;;;6017696;23;20051;-84
2021/07/17 12:41:53;;;;;;;2.75;0.90;;;25.40;99.90;;;;;;6014551;23;20019;-87
2021/07/17 12:44:18;;;;;;;8.05;1.33;;;25.30;99.90;;;;;;6043506;23;20047;-85
2021/07/17 12:46:49;;;;;;;4.85;1.27;;;25.40;99.90;;;;;;6012810;23;20120;-85
2021/07/17 12:49:23;;;;;;;4.40;1.23;;;25.30;99.90;;;;;;6013834;23;20413;-84
2021/07/17 12:51:53;;;;;;;2.75;1.05;;;24.90;99.90;;;;;;6014085;23;20436;-83
2021/07/17 12:54:28;;;;;;;3.97;0.90;;;24.90;99.90;;;;;;6014122;23;20802;-85
2021/07/17 12:57:00;;;;;;;3.80;1.10;;;24.70;99.90;;;;;;6050777;23;20058;-84
2021/07/17 12:59:35;;;;;;;3.15;1.13;;;25.10;99.90;;;;;;6150587;23;20077;-83
2021/07/17 13:02:15;;;;;;;5.07;1.00;;;25.60;99.90;;;;;;6127507;23;20018;-85
2021/07/17 13:04:46;;;;;;;2.88;1.10;;;25.60;99.90;;;;;;6125162;23;20021;-84
2021/07/17 13:07:12;;;;;;;2.85;1.10;;;25.40;99.90;;;;;;6125032;23;20006;-83
2021/07/17 13:09:39;;;;;;;2.97;1.20;;;25.50;99.90;;;;;;6125100;23;20010;-84
2021/07/17 13:12:10;;;;;;;4.95;1.17;;;25.60;99.90;;;;;;6124590;23;20022;-83
2021/07/17 13:14:38;;;;;;;4.40;1.42;;;25.60;99.90;;;;;;6135983;23;20022;-84
2021/07/17 13:17:13;;;;;;;3.90;0.95;;;25.60;99.90;;;;;;6125988;23;20021;-84
2021/07/17 13:19:40;;;;;;;5.93;1.20;;;25.90;99.90;;;;;;6124322;23;20129;-84
2021/07/17 13:22:08;;;;;;;2.85;1.08;;;25.80;99.90;;;;;;6134678;23;20014;-85
2021/07/17 13:24:46;;;;;;;5.97;1.10;;;25.60;99.90;;;;;;6127418;23;20014;-84
2021/07/17 13:27:26;;;;;;;5.43;1.40;;;26.10;99.90;;;;;;6133679;23;20018;-85
2021/07/17 13:29:58;;;;;;;4.10;1.10;;;25.90;99.90;;;;;;6075775;23;20017;-87
2021/07/17 13:32:39;;;;;;;5.97;1.65;;;25.90;99.90;;;;;;6121473;23;20061;-87
2021/07/17 13:35:31;;;;;;;3.53;1.20;;;25.80;99.90;;;;;;6133225;23;20069;-88
2021/07/17 13:43:14;;;;;;;;;;;;;;;;;;;;;
2021/07/17 13:49:56;;;;;;;4.88;1.17;;;26.30;99.90;;;;;;6057518;23;20094;-86
2021/07/17 13:52:45;;;;;;;3.03;1.20;;;26.50;99.90;;;;;;6044210;23;20066;-87
2021/07/17 13:55:53;;;;;;;6.50;1.38;;;26.50;99.90;;;;;;6017916;23;20026;-85
2021/07/17 13:59:07;;;;;;;4.18;1.10;;;26.30;99.90;;;;;;6016794;23;20030;-85
2021/07/17 14:01:45;;;;;;;4.18;1.25;;;26.70;99.90;;;;;;6014184;23;20098;-86
2021/07/17 14:05:00;;;;;;;2.75;1.02;;;26.90;99.90;;;;;;6014929;23;20085;-85
2021/07/17 14:07:53;;;;;;;1.58;0.90;;;26.70;99.90;;;;;;5948585;24;20158;-86
2021/07/17 14:10:21;;;;;;;2.90;1.20;;;26.40;99.90;;;;;;5902978;24;20534;-85
2021/07/17 14:13:26;;;;;;;3.47;1.27;;;26.10;99.90;;;;;;5929300;24;20021;-86
2021/07/17 14:15:59;;;;;;;4.38;1.10;;;26.40;99.90;;;;;;5820750;24;20432;-86
2021/07/17 14:18:25;;;;;;;3.50;0.93;;;26.60;99.90;;;;;;5819547;24;20046;-85
2021/07/17 14:20:52;;;;;;;3.88;1.10;;;26.50;99.90;;;;;;5820323;24;20553;-86
2021/07/17 14:23:30;;;;;;;2.50;1.05;;;26.60;99.90;;;;;;5842216;24;20120;-84
2021/07/17 14:26:02;;;;;;;2.28;1.05;;;26.60;99.90;;;;;;5866740;24;20029;-84
2021/07/17 14:28:32;;;;;;;3.67;1.13;;;26.60;99.90;;;;;;5873909;24;20021;-85
2021/07/17 14:31:01;;;;;;;2.22;1.05;;;26.50;99.90;;;;;;5874973;24;20340;-83
2021/07/17 14:33:30;;;;;;;2.88;1.00;;;26.20;99.90;;;;;;5875089;24;20027;-83
2021/07/17 14:35:56;;;;;;;2.85;0.98;;;26.50;99.90;;;;;;5874808;24;20017;-83
2021/07/17 14:38:27;;;;;;;6.15;1.00;;;26.60;99.90;;;;;;5897216;24;20032;-84
2021/07/17 14:40:56;;;;;;;5.75;0.90;;;26.60;99.90;;;;;;5907018;24;20018;-83
2021/07/17 14:43:23;;;;;;;6.03;2.50;;;26.80;99.90;;;;;;5937946;23;20019;-84
2021/07/17 14:45:49;;;;;;;2.10;0.90;;;27.30;99.70;;;;;;6008117;23;20375;-85
2021/07/17 14:48:17;;;;;;;6.50;1.20;;;27.10;99.40;;;;;;5984217;23;20473;-85
2021/07/17 14:50:50;;;;;;;2.72;0.93;;;27.20;99.00;;;;;;5984194;23;20023;-88
2021/07/17 14:53:16;;;;;;;3.33;0.95;;;27.00;99.10;;;;;;6105369;23;20442;-84
2021/07/17 14:55:43;;;;;;;3.78;1.08;;;27.00;99.10;;;;;;6129464;23;20019;-84
2021/07/17 14:58:10;;;;;;;2.45;1.00;;;27.20;99.30;;;;;;6153274;23;20010;-84
2021/07/17 15:00:36;;;;;;;3.53;1.10;;;27.00;98.90;;;;;;6128402;23;20407;-83
2021/07/17 15:03:04;;;;;;;3.38;0.93;;;27.20;98.10;;;;;;6103089;23;20058;-87
2021/07/17 15:05:30;;;;;;;5.95;1.13;;;27.20;97.40;;;;;;6166100;23;20188;-86
2021/07/17 15:08:58;;;;;;;3.05;1.10;;;27.00;97.60;;;;;;6106058;23;20021;-87
2021/07/17 15:12:09;;;;;;;2.70;1.17;;;26.90;97.90;;;;;;6020139;23;20094;-88
2021/07/17 15:15:05;;;;;;;2.28;0.85;;;27.50;97.00;;;;;;6012605;23;20252;-89
2021/07/17 15:17:54;;;;;;;3.60;1.00;;;27.40;96.10;;;;;;5936245;24;20044;-88
2021/07/17 15:20:34;;;;;;;2.47;1.67;;;27.20;94.80;;;;;;5927552;23;20020;-85
2021/07/17 15:22:59;;;;;;;4.07;1.15;;;27.30;94.50;;;;;;5950904;24;20021;-86
2021/07/17 15:25:25;;;;;;;4.65;1.20;;;27.10;94.40;;;;;;5905915;24;20024;-84
2021/07/17 15:27:51;;;;;;;1.95;0.90;;;26.80;94.90;;;;;;5904675;24;20044;-84
2021/07/17 15:30:17;;;;;;;3.15;0.85;;;26.50;95.80;;;;;;5961413;24;20027;-84
2021/07/17 15:32:43;;;;;;;2.63;0.95;;;26.40;96.40;;;;;;5927818;24;20016;-85
2021/07/17 15:35:09;;;;;;;2.95;1.00;;;26.30;97.50;;;;;;5956037;24;20032;-84
2021/07/17 15:37:35;;;;;;;2.03;0.95;;;26.50;97.80;;;;;;5962001;24;20386;-85
2021/07/17 15:40:04;;;;;;;3.40;1.20;;;26.40;98.90;;;;;;5954685;24;20034;-85
2021/07/17 15:42:30;;;;;;;4.30;1.10;;;26.40;99.10;;;;;;5954803;24;20016;-86
2021/07/17 15:44:58;;;;;;;4.53;1.27;;;26.80;99.10;;;;;;5983241;24;20031;-85
2021/07/17 15:47:24;;;;;;;3.38;1.10;;;26.80;97.20;;;;;;5966596;23;20077;-87